Time;durP1;ratioP1;P1;durP2;ratioP2;P2;SDS_P1;SDS_P2;PMS_P1;PMS_P2;Temp;Humidity;BMP_temperature;BMP_pressure;BME280_temperature;BME280_humidity;BME280_pressure;Samples;Min_cycle;Max_cycle;Signal;HPM_P1;HPM_P2
2022/01/31 00:01:22;;;;;;;25.10;11.77;;;;;;;4.01;77.58;101493.81;5024618;28;20030;-63
2022/01/31 00:03:47;;;;;;;20.35;9.82;;;;;;;4.01;77.77;101459.34;5023151;28;20029;-61
2022/01/31 00:06:13;;;;;;;20.27;9.75;;;;;;;3.97;78.07;101444.38;5024596;28;20029;-61
2022/01/31 00:08:40;;;;;;;23.00;9.85;;;;;;;4.08;77.82;101435.88;5024858;28;20038;-61
2022/01/31 00:11:05;;;;;;;24.60;10.98;;;;;;;3.95;78.34;101445.56;5024853;28;20109;-61
2022/01/31 00:13:37;;;;;;;30.02;11.68;;;;;;;3.92;78.96;101426.91;5008176;28;20025;-61
2022/01/31 00:16:04;;;;;;;27.23;10.82;;;;;;;3.96;78.55;101436.41;5023630;28;20790;-61
2022/01/31 00:18:29;;;;;;;31.90;10.40;;;;;;;3.98;78.75;101426.22;5024550;28;20128;-61
2022/01/31 00:20:54;;;;;;;21.73;10.23;;;;;;;3.99;78.73;101409.72;5024449;28;20531;-61
2022/01/31 00:23:20;;;;;;;23.58;9.98;;;;;;;4.03;78.36;101412.94;5024610;28;20380;-61
2022/01/31 00:25:45;;;;;;;26.08;10.57;;;;;;;4.05;78.47;101381.84;5023680;28;20033;-61
2022/01/31 00:28:10;;;;;;;24.25;10.13;;;;;;;4.05;78.85;101384.56;5022347;28;20491;-61
2022/01/31 00:30:36;;;;;;;30.33;10.30;;;;;;;4.04;79.08;101365.72;5024429;28;20061;-61
2022/01/31 00:33:01;;;;;;;20.98;8.93;;;;;;;4.05;79.74;101365.53;5022972;28;20030;-61
2022/01/31 00:35:26;;;;;;;25.63;8.70;;;;;;;4.08;79.78;101357.03;5023995;28;20452;-61
2022/01/31 00:37:53;;;;;;;24.92;9.20;;;;;;;4.07;80.16;101335.47;5023952;28;20527;-61
2022/01/31 00:40:18;;;;;;;29.98;9.52;;;;;;;4.05;80.13;101316.59;5024199;28;20045;-61
2022/01/31 00:42:45;;;;;;;19.40;8.80;;;;;;;4.06;80.46;101307.44;5019025;28;20086;-61
2022/01/31 00:45:15;;;;;;;28.27;8.93;;;;;;;4.29;79.78;101284.91;5022855;28;20032;-61
2022/01/31 00:47:44;;;;;;;24.42;9.05;;;;;;;4.16;80.98;101288.22;5024167;28;20021;-61
2022/01/31 00:50:12;;;;;;;26.75;9.20;;;;;;;4.24;81.25;101279.16;5021876;28;20065;-61
2022/01/31 00:52:40;;;;;;;25.67;9.10;;;;;;;4.04;83.30;101271.44;5024677;28;20025;-61
2022/01/31 00:55:08;;;;;;;23.05;8.93;;;;;;;4.01;84.61;101269.09;5024313;28;20088;-61
2022/01/31 00:57:34;;;;;;;26.95;10.02;;;;;;;3.99;84.57;101256.69;5026761;28;20049;-61
2022/01/31 00:59:59;;;;;;;23.67;8.45;;;;;;;3.92;85.69;101245.69;5042610;28;20059;-61
2022/01/31 01:02:26;;;;;;;22.35;8.80;;;;;;;4.03;85.23;101234.41;5032192;28;20053;-61
2022/01/31 01:04:51;;;;;;;23.42;8.50;;;;;;;3.94;85.63;101231.91;5020638;28;20516;-61
2022/01/31 01:07:19;;;;;;;28.00;9.15;;;;;;;3.89;86.79;101214.28;5023390;28;20032;-61
2022/01/31 01:09:46;;;;;;;25.85;9.93;;;;;;;3.92;87.16;101207.66;5023866;28;20056;-61
2022/01/31 01:12:13;;;;;;;31.42;10.68;;;;;;;3.88;87.78;101195.44;5023021;28;20083;-61
2022/01/31 01:14:39;;;;;;;23.73;9.38;;;;;;;3.87;88.61;101188.31;5021993;28;20025;-61
2022/01/31 01:17:04;;;;;;;25.00;9.18;;;;;;;3.94;88.92;101183.84;5024123;28;20052;-61
2022/01/31 01:19:30;;;;;;;25.65;9.73;;;;;;;3.80;89.50;101171.00;5022365;28;20120;-61
2022/01/31 01:21:55;;;;;;;30.35;9.98;;;;;;;3.78;90.42;101154.06;5023358;28;20025;-61
2022/01/31 01:24:20;;;;;;;23.02;9.50;;;;;;;3.75;90.69;101159.84;5021247;28;20026;-61
2022/01/31 01:26:47;;;;;;;27.75;10.65;;;;;;;3.81;91.23;101154.56;5023767;28;20029;-61
2022/01/31 01:29:13;;;;;;;21.35;8.45;;;;;;;3.83;90.69;101121.75;5019657;28;20029;-62
2022/01/31 01:31:38;;;;;;;25.17;9.80;;;;;;;3.79;91.84;101115.00;5023111;28;20152;-62
2022/01/31 01:34:04;;;;;;;26.85;9.30;;;;;;;3.79;91.44;101109.56;5023519;28;20189;-62
2022/01/31 01:36:31;;;;;;;26.75;9.07;;;;;;;3.81;91.65;101112.97;5022719;28;20052;-62
2022/01/31 01:38:56;;;;;;;28.70;9.45;;;;;;;3.83;92.27;101106.31;5023559;28;20022;-62
2022/01/31 01:41:21;;;;;;;23.42;10.55;;;;;;;3.85;92.39;101081.66;5023593;28;20380;-62
2022/01/31 01:43:47;;;;;;;27.83;10.65;;;;;;;3.87;92.43;101076.91;5020946;28;20026;-62
2022/01/31 01:46:12;;;;;;;24.40;9.88;;;;;;;3.87;92.58;101080.47;5025751;28;20022;-62
2022/01/31 01:48:37;;;;;;;27.27;10.32;;;;;;;3.89;93.40;101050.41;5015393;28;20029;-62
2022/01/31 01:51:04;;;;;;;24.95;9.82;;;;;;;4.08;92.24;101051.78;5026592;28;20416;-62
2022/01/31 01:53:30;;;;;;;22.58;10.07;;;;;;;4.01;93.04;101039.97;5027204;28;20492;-62
2022/01/31 01:55:55;;;;;;;25.02;9.75;;;;;;;4.02;92.84;101017.19;5026871;28;20131;-62
2022/01/31 01:58:22;;;;;;;23.42;10.90;;;;;;;4.09;92.97;101016.25;5025127;28;20080;-62
2022/01/31 02:00:52;;;;;;;21.23;10.60;;;;;;;4.08;92.90;101006.41;5010506;28;20025;-62
2022/01/31 02:03:19;;;;;;;25.90;10.63;;;;;;;4.07;93.51;100996.56;5007749;28;20088;-62
2022/01/31 02:05:46;;;;;;;27.10;11.20;;;;;;;4.05;93.56;100993.19;5007539;28;20041;-62
2022/01/31 02:08:17;;;;;;;28.02;11.07;;;;;;;4.13;93.80;100987.69;5007470;28;20084;-62
2022/01/31 02:10:43;;;;;;;29.65;11.43;;;;;;;4.12;93.81;100982.44;5011275;28;20377;-62
2022/01/31 02:13:10;;;;;;;25.10;10.25;;;;;;;4.07;94.40;100980.28;5026256;28;20040;-62
2022/01/31 02:15:36;;;;;;;24.95;9.88;;;;;;;4.13;94.40;100973.25;5025893;28;20056;-62
2022/01/31 02:18:03;;;;;;;19.67;9.32;;;;;;;4.14;94.59;100972.22;5026943;28;20473;-62
2022/01/31 02:20:29;;;;;;;20.80;10.80;;;;;;;4.07;95.06;100960.41;5026626;28;20278;-62
2022/01/31 02:22:54;;;;;;;25.50;10.52;;;;;;;4.14;95.12;100962.19;5026348;28;20116;-62
2022/01/31 02:25:20;;;;;;;19.73;10.57;;;;;;;4.16;95.18;100960.13;5026588;28;20088;-62
2022/01/31 02:27:45;;;;;;;21.13;10.77;;;;;;;4.14;95.50;100966.78;5026293;28;20029;-62
2022/01/31 02:30:16;;;;;;;26.05;11.60;;;;;;;4.12;96.30;100961.53;5023845;28;20029;-62
2022/01/31 02:32:43;;;;;;;22.77;11.77;;;;;;;4.14;96.64;100962.19;5025954;28;20519;-62
2022/01/31 02:35:09;;;;;;;18.27;10.63;;;;;;;4.36;95.45;100944.13;5026894;28;20025;-62
2022/01/31 02:37:34;;;;;;;18.92;9.90;;;;;;;4.24;96.54;100928.44;5027233;28;20025;-62
2022/01/31 02:39:59;;;;;;;20.50;11.77;;;;;;;4.26;96.67;100923.66;5023791;28;20361;-62
2022/01/31 02:42:25;;;;;;;22.65;11.50;;;;;;;4.34;97.05;100912.69;5024878;28;20064;-62
2022/01/31 02:44:50;;;;;;;20.20;8.35;;;;;;;4.63;95.57;100922.69;5023118;28;20018;-63
2022/01/31 02:47:23;;;;;;;16.58;9.13;;;;;;;4.43;96.22;100911.56;5026511;28;20025;-62
2022/01/31 02:49:55;;;;;;;16.38;8.40;;;;;;;4.47;96.99;100899.28;5024856;28;20032;-62
2022/01/31 02:52:20;;;;;;;12.15;7.90;;;;;;;4.54;96.19;100896.63;5025757;28;20071;-62
2022/01/31 02:54:46;;;;;;;16.92;8.18;;;;;;;4.60;96.01;100885.00;5025581;28;20021;-62
2022/01/31 02:57:12;;;;;;;15.27;6.75;;;;;;;4.76;95.83;100868.44;5025788;28;20068;-62
2022/01/31 02:59:38;;;;;;;17.38;8.10;;;;;;;4.68;96.28;100888.44;5025645;28;20036;-62
2022/01/31 03:02:05;;;;;;;19.02;8.05;;;;;;;4.71;96.40;100884.50;5002148;22;20046;-62
2022/01/31 03:04:30;;;;;;;15.57;8.65;;;;;;;4.73;96.62;100874.28;4986269;28;20162;-63
2022/01/31 03:06:55;;;;;;;17.15;8.85;;;;;;;4.76;97.05;100879.31;4986945;28;20108;-62
2022/01/31 03:09:21;;;;;;;16.40;8.65;;;;;;;4.78;96.99;100881.88;4985864;28;20030;-62
2022/01/31 03:11:47;;;;;;;15.15;8.38;;;;;;;4.77;97.79;100863.88;4986619;28;20872;-62
2022/01/31 03:14:15;;;;;;;20.17;8.48;;;;;;;4.85;97.60;100870.00;4985467;28;20520;-62
2022/01/31 03:16:41;;;;;;;18.55;8.50;;;;;;;4.90;97.95;100866.72;4985688;28;20696;-62
2022/01/31 03:19:08;;;;;;;26.42;8.13;;;;;;;4.95;98.08;100861.53;4985244;28;20109;-62
2022/01/31 03:21:33;;;;;;;16.60;7.28;;;;;;;4.95;97.90;100856.09;4986898;28;20034;-63
2022/01/31 03:23:59;;;;;;;24.75;8.18;;;;;;;5.06;97.40;100855.56;4986103;28;20057;-62
2022/01/31 03:26:24;;;;;;;19.15;6.50;;;;;;;5.07;97.67;100857.28;4986851;28;20511;-62
2022/01/31 03:28:52;;;;;;;21.05;7.53;;;;;;;5.11;97.47;100849.53;4984480;28;20030;-62
2022/01/31 03:31:18;;;;;;;18.05;6.55;;;;;;;5.18;97.23;100850.47;4986412;28;20026;-62
2022/01/31 03:33:45;;;;;;;23.80;6.35;;;;;;;5.24;96.49;100852.38;4985381;28;20029;-63
2022/01/31 03:36:11;;;;;;;23.23;6.68;;;;;;;5.29;96.54;100858.09;4986289;28;20066;-62
2022/01/31 03:38:40;;;;;;;19.10;5.78;;;;;;;5.31;96.34;100847.84;4985703;28;20058;-62
2022/01/31 03:41:07;;;;;;;16.02;5.03;;;;;;;5.32;96.28;100835.06;4986738;28;20113;-62
2022/01/31 03:43:32;;;;;;;18.77;5.15;;;;;;;5.34;95.92;100833.00;4985321;28;20030;-62
2022/01/31 03:45:58;;;;;;;15.65;4.88;;;;;;;5.36;95.91;100839.06;4985218;28;20056;-62
2022/01/31 03:48:24;;;;;;;23.67;5.43;;;;;;;5.38;95.58;100837.03;4984493;28;20074;-63
2022/01/31 03:50:50;;;;;;;21.73;5.60;;;;;;;5.38;95.03;100828.84;4985989;28;20058;-62
2022/01/31 03:53:15;;;;;;;19.10;4.85;;;;;;;5.39;95.04;100822.34;4985965;28;20069;-63
2022/01/31 03:55:40;;;;;;;20.17;4.50;;;;;;;5.45;94.30;100816.94;4985740;28;20034;-62
2022/01/31 03:58:05;;;;;;;20.90;4.50;;;;;;;5.45;94.09;100836.00;4984341;28;20446;-62
2022/01/31 04:00:31;;;;;;;17.77;4.47;;;;;;;5.49;93.67;100847.38;4983990;28;20038;-62
2022/01/31 04:02:56;;;;;;;23.58;4.32;;;;;;;5.50;93.51;100846.31;4985655;28;20049;-62
2022/01/31 04:05:21;;;;;;;19.05;4.47;;;;;;;5.54;93.05;100833.16;4985194;28;20037;-62
2022/01/31 04:07:47;;;;;;;20.75;5.00;;;;;;;5.55;92.52;100832.13;4983701;28;20133;-63
2022/01/31 04:10:12;;;;;;;16.15;4.43;;;;;;;5.54;93.13;100814.94;4984591;28;20034;-62
2022/01/31 04:12:37;;;;;;;18.85;4.38;;;;;;;5.55;92.54;100813.88;4984950;28;20083;-62
2022/01/31 04:15:03;;;;;;;17.27;4.00;;;;;;;5.61;92.29;100815.81;4984128;28;20034;-62
2022/01/31 04:17:31;;;;;;;14.57;4.28;;;;;;;5.59;91.95;100817.91;4984108;28;20045;-62
2022/01/31 04:19:56;;;;;;;;;;;;;;;5.63;91.40;100811.00;4984732;28;20057;-63
2022/01/31 04:22:24;;;;;;;18.77;4.00;;;;;;;5.63;90.00;100813.75;4985164;28;19971;-62
2022/01/31 04:24:54;;;;;;;18.10;4.50;;;;;;;5.60;90.20;100808.69;4985189;28;20084;-63
2022/01/31 04:27:20;;;;;;;15.95;3.85;;;;;;;5.60;90.57;100800.50;4985672;28;20026;-63
2022/01/31 04:29:46;;;;;;;16.27;3.10;;;;;;;5.61;90.08;100806.78;4980800;28;20120;-62
2022/01/31 04:32:12;;;;;;;21.13;4.25;;;;;;;5.63;89.51;100802.00;4983163;28;20074;-63
2022/01/31 04:34:37;;;;;;;19.05;3.42;;;;;;;5.71;88.17;100790.94;4985589;28;20876;-63
2022/01/31 04:37:03;;;;;;;21.90;4.03;;;;;;;5.64;88.84;100788.16;4983067;28;20044;-63
2022/01/31 04:39:29;;;;;;;20.27;3.67;;;;;;;5.65;87.63;100795.28;4984935;28;20070;-63
2022/01/31 04:41:55;;;;;;;16.10;3.38;;;;;;;5.61;88.28;100785.00;4985390;28;20089;-62
2022/01/31 04:44:22;;;;;;;19.60;4.25;;;;;;;5.63;86.70;100797.41;4983612;28;20022;-62
2022/01/31 04:46:49;;;;;;;16.90;3.65;;;;;;;5.65;87.26;100808.09;4983220;28;20030;-63
2022/01/31 04:49:16;;;;;;;16.95;3.92;;;;;;;5.63;87.11;100810.19;4982709;28;20030;-62
2022/01/31 04:51:42;;;;;;;18.38;3.72;;;;;;;5.61;86.75;100807.63;4965192;28;20027;-63
2022/01/31 04:54:07;;;;;;;17.13;3.25;;;;;;;5.58;86.86;100804.47;4973694;28;20029;-62
2022/01/31 04:56:33;;;;;;;11.05;2.95;;;;;;;5.59;86.09;100796.09;4984371;28;20030;-63
2022/01/31 04:58:58;;;;;;;23.48;3.85;;;;;;;5.60;85.08;100803.22;4983601;28;20477;-63
2022/01/31 05:01:23;;;;;;;16.23;3.42;;;;;;;5.59;85.34;100795.25;4984773;28;20140;-62
2022/01/31 05:03:49;;;;;;;15.68;3.08;;;;;;;5.57;84.86;100794.59;4984751;28;20072;-63
2022/01/31 05:06:18;;;;;;;12.48;3.00;;;;;;;5.54;85.08;100790.41;4980717;28;20024;-62
2022/01/31 05:08:43;;;;;;;15.82;3.63;;;;;;;5.54;84.71;100786.84;4982445;28;20034;-63
2022/01/31 05:11:10;;;;;;;18.10;2.88;;;;;;;5.56;84.53;100784.75;4983301;28;20088;-63
2022/01/31 05:13:38;;;;;;;16.33;3.40;;;;;;;5.54;84.57;100779.50;4984112;28;20548;-63
2022/01/31 05:16:05;;;;;;;17.23;3.08;;;;;;;5.54;83.34;100773.22;4982271;28;20026;-63
2022/01/31 05:18:31;;;;;;;21.25;3.55;;;;;;;5.53;84.25;100771.56;4983505;28;20027;-63
2022/01/31 05:20:56;;;;;;;16.73;2.90;;;;;;;5.55;83.17;100772.19;4982876;28;20041;-63
2022/01/31 05:23:21;;;;;;;17.88;2.75;;;;;;;5.55;82.63;100759.41;4983480;28;20045;-63
2022/01/31 05:25:47;;;;;;;18.30;3.35;;;;;;;5.54;82.77;100760.44;4984279;28;20081;-63
2022/01/31 05:28:12;;;;;;;17.15;3.65;;;;;;;5.51;82.92;100760.84;4983170;28;20037;-63
2022/01/31 05:30:37;;;;;;;19.38;4.18;;;;;;;5.50;83.09;100748.25;4983835;28;20031;-62
2022/01/31 05:33:03;;;;;;;17.23;3.58;;;;;;;5.49;82.39;100743.84;4982190;28;20034;-62
2022/01/31 05:35:28;;;;;;;17.67;3.58;;;;;;;5.59;81.15;100741.63;4982748;28;20109;-62
2022/01/31 05:37:53;;;;;;;17.25;3.35;;;;;;;5.58;80.99;100729.03;4979850;28;20042;-63
2022/01/31 05:40:19;;;;;;;12.43;3.42;;;;;;;5.55;81.98;100729.44;4982529;28;20101;-62
2022/01/31 05:42:44;;;;;;;18.70;2.95;;;;;;;5.56;82.33;100733.84;4982032;28;20088;-63
2022/01/31 05:45:09;;;;;;;14.07;3.13;;;;;;;5.52;83.63;100729.81;4983007;28;20035;-63
2022/01/31 05:47:35;;;;;;;22.88;3.92;;;;;;;5.42;84.79;100716.59;4981207;28;20496;-63
2022/01/31 05:50:00;;;;;;;17.95;3.65;;;;;;;5.39;85.78;100759.72;4980942;28;20655;-62
2022/01/31 05:52:26;;;;;;;18.35;3.20;;;;;;;5.31;86.45;100782.47;4984438;28;20026;-63
2022/01/31 05:54:52;;;;;;;14.70;3.80;;;;;;;5.23;87.75;100798.13;4984208;28;20054;-63
2022/01/31 05:57:17;;;;;;;8.40;2.75;;;;;;;4.94;88.27;100776.31;4982423;28;20543;-62
2022/01/31 05:59:43;;;;;;;14.30;2.70;;;;;;;4.68;89.64;100784.22;4983598;28;20041;-63
2022/01/31 06:02:09;;;;;;;12.13;3.05;;;;;;;4.45;90.56;100783.56;4984394;28;20039;-63
2022/01/31 06:04:35;;;;;;;14.00;2.95;;;;;;;4.46;90.99;100769.78;4984507;28;20432;-62
2022/01/31 06:07:00;;;;;;;8.60;2.92;;;;;;;4.45;91.01;100768.06;4979496;28;20030;-62
2022/01/31 06:09:27;;;;;;;15.60;2.88;;;;;;;4.40;92.07;100767.81;4984098;28;20366;-62
2022/01/31 06:11:52;;;;;;;14.93;2.85;;;;;;;4.41;91.97;100758.66;4983045;28;20033;-62
2022/01/31 06:14:18;;;;;;;13.95;3.00;;;;;;;4.39;91.74;100745.22;4982755;28;20034;-62
2022/01/31 06:16:43;;;;;;;19.50;3.60;;;;;;;4.44;91.50;100739.22;4982187;28;20030;-62
2022/01/31 06:19:09;;;;;;;18.70;3.75;;;;;;;4.41;92.35;100747.78;4983974;28;20421;-62
2022/01/31 06:21:34;;;;;;;10.95;2.80;;;;;;;4.42;92.62;100752.16;4983785;28;20070;-62
2022/01/31 06:24:00;;;;;;;15.80;3.92;;;;;;;4.44;92.24;100750.09;4984193;28;20037;-62
2022/01/31 06:26:26;;;;;;;18.90;3.55;;;;;;;4.47;92.21;100738.00;4982937;28;20481;-62
2022/01/31 06:28:51;;;;;;;19.13;3.92;;;;;;;4.48;92.33;100735.06;4980521;28;20030;-62
2022/01/31 06:31:16;;;;;;;20.40;4.95;;;;;;;4.53;91.76;100737.22;4983326;28;21250;-62
2022/01/31 06:33:42;;;;;;;17.75;3.88;;;;;;;4.57;91.12;100743.97;4987446;28;20057;-62
2022/01/31 06:36:08;;;;;;;17.08;3.17;;;;;;;4.63;90.97;100746.72;4987043;28;20118;-62
2022/01/31 06:38:35;;;;;;;17.27;3.10;;;;;;;4.63;91.13;100746.72;4986988;28;20027;-63
2022/01/31 06:41:01;;;;;;;23.10;4.70;;;;;;;4.67;90.89;100744.47;4986948;28;20011;-63
2022/01/31 06:43:26;;;;;;;15.93;4.00;;;;;;;4.65;90.80;100731.03;4987000;28;20177;-62
2022/01/31 06:45:52;;;;;;;21.73;5.15;;;;;;;4.64;90.84;100756.56;4981871;28;20544;-63
2022/01/31 06:48:17;;;;;;;20.48;4.80;;;;;;;4.69;89.95;100748.66;4981035;28;20029;-62
2022/01/31 06:50:42;;;;;;;19.02;4.35;;;;;;;4.76;89.46;100742.44;4986422;28;20023;-62
2022/01/31 06:53:08;;;;;;;15.68;3.45;;;;;;;4.72;89.49;100739.28;4987440;28;20376;-62
2022/01/31 06:55:34;;;;;;;17.15;3.00;;;;;;;4.85;88.87;100736.66;4986930;28;20102;-62
2022/01/31 06:58:02;;;;;;;16.98;3.10;;;;;;;4.72;89.61;100736.56;4985295;28;20049;-64
2022/01/31 07:00:28;;;;;;;21.17;4.65;;;;;;;4.72;89.85;100741.16;4986809;28;20193;-62
2022/01/31 07:02:54;;;;;;;20.27;3.85;;;;;;;4.71;89.58;100747.63;4986504;28;20109;-62
2022/01/31 07:05:20;;;;;;;14.80;4.40;;;;;;;4.79;89.04;100742.06;4986120;28;20130;-62
2022/01/31 07:07:45;;;;;;;21.52;5.57;;;;;;;4.72;89.55;100747.44;4984742;28;20521;-62
2022/01/31 07:10:11;;;;;;;31.25;3.75;;;;;;;4.80;88.60;100739.13;4986554;28;20053;-63
2022/01/31 07:12:39;;;;;;;19.13;3.75;;;;;;;4.74;89.23;100744.53;4985651;28;20141;-62
2022/01/31 07:15:07;;;;;;;20.38;3.53;;;;;;;4.73;89.34;100738.25;5005564;28;20034;-62
2022/01/31 07:17:35;;;;;;;23.90;3.97;;;;;;;4.72;89.56;100735.72;4983801;28;20041;-63
2022/01/31 07:20:04;;;;;;;20.43;4.60;;;;;;;4.69;90.00;100743.22;4985186;28;20057;-63
2022/01/31 07:22:35;;;;;;;24.40;4.50;;;;;;;4.70;89.96;100754.94;4987048;28;20049;-63
2022/01/31 07:25:03;;;;;;;24.92;6.60;;;;;;;4.65;90.93;100765.56;4985992;28;20022;-63
2022/01/31 07:27:29;;;;;;;20.42;4.03;;;;;;;4.72;90.65;100777.38;4984829;28;20045;-63
2022/01/31 07:29:54;;;;;;;28.35;4.50;;;;;;;4.57;91.87;100777.44;4983315;28;20079;-63
2022/01/31 07:32:20;;;;;;;24.48;4.78;;;;;;;4.51;91.90;100774.63;4986204;28;20065;-63
2022/01/31 07:34:46;;;;;;;26.60;5.00;;;;;;;4.39;93.00;100780.56;4986143;28;20026;-62
2022/01/31 07:37:12;;;;;;;28.33;5.53;;;;;;;4.35;93.74;100779.25;4985771;28;20117;-62
2022/01/31 07:39:39;;;;;;;23.88;4.80;;;;;;;4.37;94.02;100782.66;4986567;28;20054;-63
2022/01/31 07:42:05;;;;;;;20.70;4.38;;;;;;;4.34;94.29;100761.28;4985248;28;20029;-62
2022/01/31 07:44:30;;;;;;;24.30;4.10;;;;;;;4.41;93.69;100755.94;4984780;28;20658;-63
2022/01/31 07:46:55;;;;;;;20.35;3.75;;;;;;;4.41;93.12;100745.06;4984255;28;20080;-62
2022/01/31 07:49:22;;;;;;;17.25;3.05;;;;;;;4.36;93.19;100758.38;4985742;28;20038;-62
2022/01/31 07:51:47;;;;;;;15.93;3.50;;;;;;;4.35;93.32;100751.22;4986358;28;20046;-62
2022/01/31 07:54:12;;;;;;;20.10;5.30;;;;;;;4.38;93.28;100756.31;4986119;28;20707;-62
2022/01/31 07:56:38;;;;;;;20.65;4.78;;;;;;;4.41;92.85;100753.22;4985530;28;20038;-62
2022/01/31 07:59:03;;;;;;;24.83;4.70;;;;;;;4.41;93.05;100767.66;4982101;28;20086;-62
2022/01/31 08:01:28;;;;;;;21.08;5.28;;;;;;;4.50;92.74;100764.78;4976913;28;20119;-63
2022/01/31 08:03:54;;;;;;;22.73;4.47;;;;;;;4.45;93.26;100759.91;4980999;28;20034;-62
2022/01/31 08:06:19;;;;;;;26.67;4.38;;;;;;;4.50;92.92;100757.47;4981576;28;20050;-63
2022/01/31 08:08:44;;;;;;;28.40;4.95;;;;;;;4.55;92.36;100756.88;4982329;28;20035;-62
2022/01/31 08:11:10;;;;;;;24.05;4.63;;;;;;;4.59;91.64;100748.16;4983639;28;20018;-62
2022/01/31 08:13:36;;;;;;;20.67;4.25;;;;;;;4.56;91.85;100762.16;4980784;28;20022;-63
2022/01/31 08:18:35;;;;;;;17.13;3.70;;;;;;;4.62;92.02;100779.56;4985312;28;20038;-63
2022/01/31 08:21:03;;;;;;;23.63;4.82;;;;;;;4.65;91.88;100784.59;4984297;28;20038;-62
2022/01/31 08:23:29;;;;;;;26.75;4.50;;;;;;;4.67;91.37;100771.69;4982097;28;20223;-63
2022/01/31 08:25:54;;;;;;;22.60;4.13;;;;;;;4.71;90.82;100783.00;4977181;28;20030;-63
2022/01/31 08:28:28;;;;;;;23.98;4.53;;;;;;;4.72;91.33;100780.09;4981100;28;20366;-63
2022/01/31 08:30:58;;;;;;;23.38;3.85;;;;;;;4.67;91.33;100763.50;4980010;28;20520;-62
2022/01/31 08:33:32;;;;;;;25.85;4.53;;;;;;;4.68;91.19;100771.47;4976115;28;20033;-63
2022/01/31 08:35:59;;;;;;;25.20;4.10;;;;;;;4.75;90.81;100776.97;4965911;28;20027;-62
2022/01/31 08:38:25;;;;;;;26.00;4.30;;;;;;;4.74;91.47;100793.50;4970233;28;20077;-63
2022/01/31 08:40:50;;;;;;;24.65;4.47;;;;;;;4.77;90.75;100774.91;4984979;28;20397;-63
2022/01/31 08:43:17;;;;;;;19.83;4.03;;;;;;;4.71;91.38;100772.09;4978084;28;20031;-62
2022/01/31 08:45:43;;;;;;;28.23;4.03;;;;;;;4.71;91.65;100774.81;4972547;28;20499;-63
2022/01/31 08:48:09;;;;;;;28.88;4.65;;;;;;;4.83;89.99;100781.44;4982863;28;20069;-62
2022/01/31 08:50:35;;;;;;;26.42;5.00;;;;;;;4.82;91.10;100785.22;4970950;28;20034;-62
2022/01/31 08:53:00;;;;;;;30.15;4.88;;;;;;;4.95;89.52;100788.03;4982502;28;20030;-62
2022/01/31 08:55:25;;;;;;;24.63;4.03;;;;;;;4.92;89.75;100789.28;4983615;28;20026;-63
2022/01/31 08:57:55;;;;;;;24.88;4.43;;;;;;;4.91;90.40;100794.91;4969280;28;20181;-62
2022/01/31 09:00:21;;;;;;;31.15;4.45;;;;;;;4.93;89.74;100807.31;4967187;28;20535;-63
2022/01/31 09:03:03;;;;;;;24.10;4.03;;;;;;;4.94;88.62;100773.59;4973903;28;20121;-63
2022/01/31 09:05:29;;;;;;;15.93;3.50;;;;;;;4.95;88.51;100778.00;4965068;28;20177;-63
2022/01/31 09:07:54;;;;;;;16.27;3.90;;;;;;;5.05;88.27;100780.38;4982502;28;20130;-63
2022/01/31 09:10:20;;;;;;;21.25;3.88;;;;;;;4.88;89.63;100785.28;4984159;28;20030;-63
2022/01/31 09:12:45;;;;;;;26.80;4.03;;;;;;;4.87;90.29;100793.63;4974090;28;20030;-63
2022/01/31 09:15:12;;;;;;;25.83;4.50;;;;;;;4.89;90.37;100786.09;4976661;28;20026;-63
2022/01/31 09:17:39;;;;;;;23.70;4.18;;;;;;;4.84;91.08;100792.13;4979272;28;20026;-62
2022/01/31 09:20:05;;;;;;;23.17;4.43;;;;;;;4.80;91.12;100790.00;4979996;28;20033;-63
2022/01/31 09:22:30;;;;;;;21.48;4.25;;;;;;;4.77;91.08;100802.13;4980155;28;20474;-62
2022/01/31 09:24:55;;;;;;;26.92;4.03;;;;;;;4.77;90.73;100801.28;4983347;28;20062;-63
2022/01/31 09:27:20;;;;;;;30.80;4.72;;;;;;;4.75;91.01;100803.34;4982035;28;20092;-62
2022/01/31 09:29:46;;;;;;;27.88;5.70;;;;;;;4.78;90.97;100801.06;4980793;28;20034;-63
2022/01/31 09:32:12;;;;;;;21.85;4.85;;;;;;;4.79;90.83;100810.09;4982419;28;20014;-63
2022/01/31 09:34:38;;;;;;;25.58;4.05;;;;;;;4.96;89.25;100819.66;4982965;28;20019;-63
2022/01/31 09:37:03;;;;;;;26.75;4.90;;;;;;;4.85;90.96;100817.47;4982223;28;20026;-62
2022/01/31 09:39:30;;;;;;;25.67;4.70;;;;;;;4.87;90.18;100826.28;4983627;28;20393;-62
2022/01/31 09:41:57;;;;;;;32.10;5.38;;;;;;;4.86;90.23;100825.41;4982722;28;20109;-62
2022/01/31 09:47:19;;;;;;;34.50;5.80;;;;;;;4.78;91.97;100835.63;4981700;28;20035;-62
2022/01/31 09:49:44;;;;;;;26.38;6.57;;;;;;;4.90;90.08;100826.72;4983456;28;20057;-62
2022/01/31 09:52:10;;;;;;;40.88;5.63;;;;;;;4.90;89.79;100848.50;4982738;28;20068;-63
2022/01/31 09:54:35;;;;;;;41.50;7.60;;;;;;;4.92;90.41;100865.50;4983177;28;20031;-63
2022/01/31 09:57:01;;;;;;;28.85;5.75;;;;;;;4.91;90.31;100854.78;4977842;28;20034;-62
2022/01/31 09:59:26;;;;;;;30.05;5.18;;;;;;;4.83;91.31;100860.38;4976296;28;20022;-63
2022/01/31 10:01:54;;;;;;;25.33;4.38;;;;;;;4.81;91.09;100873.31;4982973;28;20133;-63
2022/01/31 10:04:30;;;;;;;30.90;5.50;;;;;;;4.75;92.35;100877.63;4982488;28;20038;-63
2022/01/31 10:06:57;;;;;;;31.05;5.95;;;;;;;4.69;92.44;100884.69;4972885;28;20126;-63
2022/01/31 10:09:31;;;;;;;32.77;5.37;;;;;;;4.67;93.20;100866.88;4984076;28;20030;-63
2022/01/31 10:12:05;;;;;;;34.28;6.25;;;;;;;4.66;92.88;100868.78;4985006;28;20026;-63
2022/01/31 10:17:30;;;;;;;32.50;6.68;;;;;;;4.79;91.32;100884.38;4985833;28;20747;-63
2022/01/31 10:20:01;;;;;;;34.47;6.32;;;;;;;4.83;90.45;100879.41;4983499;28;20112;-63
2022/01/31 10:22:29;;;;;;;38.78;7.63;;;;;;;4.87;90.43;100897.88;4985553;28;20045;-63
2022/01/31 10:24:55;;;;;;;;;;;;;;;5.02;89.77;100914.16;4986809;28;20031;-64
2022/01/31 10:27:32;;;;;;;39.10;6.68;;;;;;;4.97;88.85;100903.03;4985613;28;19921;-63
2022/01/31 10:30:12;;;;;;;42.35;7.43;;;;;;;5.23;88.49;100910.63;4984552;28;20042;-63
2022/01/31 10:32:40;;;;;;;42.33;7.13;;;;;;;5.01;88.25;100934.22;4984373;28;20357;-63
2022/01/31 10:35:21;;;;;;;44.60;6.85;;;;;;;5.03;88.35;100918.56;4986071;28;20365;-63
2022/01/31 10:37:49;;;;;;;44.85;7.80;;;;;;;5.07;87.91;100932.63;4983321;28;20063;-63
2022/01/31 10:43:27;;;;;;;36.63;7.25;;;;;;;5.00;88.15;100929.84;4986140;28;20092;-63
2022/01/31 10:53:42;;;;;;;37.83;6.43;;;;;;;5.06;87.41;100939.94;4977491;28;20050;-63
2022/01/31 10:56:08;;;;;;;32.55;5.60;;;;;;;5.06;87.10;100939.94;4981424;28;20125;-63
2022/01/31 10:58:33;;;;;;;32.08;7.20;;;;;;;5.04;86.28;100922.97;4985170;28;20519;-63
2022/01/31 11:01:19;;;;;;;42.17;7.45;;;;;;;5.14;86.76;100939.84;4985691;28;20042;-63
2022/01/31 11:03:46;;;;;;;29.27;5.50;;;;;;;5.08;87.02;100954.22;4982399;28;20033;-63
2022/01/31 11:06:12;;;;;;;31.42;6.10;;;;;;;5.03;87.69;100953.97;4972072;28;20018;-63
2022/01/31 11:08:38;;;;;;;30.67;7.30;;;;;;;5.03;86.86;100958.56;4986019;28;20034;-63
2022/01/31 11:11:04;;;;;;;38.67;6.75;;;;;;;5.03;87.01;100958.56;4984591;28;20057;-63
2022/01/31 11:13:36;;;;;;;35.08;6.85;;;;;;;4.94;88.22;100972.28;4981866;28;20037;-63
2022/01/31 11:16:01;;;;;;;37.80;6.97;;;;;;;4.99;88.47;100955.38;4984453;28;20041;-63
2022/01/31 11:18:30;;;;;;;39.45;7.45;;;;;;;4.82;89.18;100975.69;4985522;28;20027;-63
2022/01/31 11:21:02;;;;;;;;;;;;;;;4.93;89.42;100988.81;4987054;28;20121;-63
2022/01/31 11:23:32;;;;;;;42.15;6.05;;;;;;;4.77;89.59;100980.84;4986738;28;19918;-63
2022/01/31 11:26:00;;;;;;;29.13;5.55;;;;;;;4.80;90.22;100983.19;4984805;28;20133;-63
2022/01/31 11:28:29;;;;;;;29.80;6.80;;;;;;;4.88;89.48;100991.25;4985627;28;20018;-63
2022/01/31 11:30:54;;;;;;;27.15;6.68;;;;;;;4.79;89.94;100993.22;4986191;28;20169;-63
2022/01/31 11:33:19;;;;;;;34.67;6.63;;;;;;;4.77;90.85;100991.75;4985510;28;20105;-63
2022/01/31 11:35:47;;;;;;;35.35;7.72;;;;;;;4.80;90.20;100999.50;4985168;28;20057;-63
2022/01/31 11:38:13;;;;;;;40.30;6.82;;;;;;;4.85;90.19;100997.06;4984776;28;20037;-63
2022/01/31 11:40:39;;;;;;;35.10;7.43;;;;;;;4.73;90.57;100998.59;4986404;28;20030;-63